createdAt,value
2017-05-24T00:00:39.772Z,22.58
2017-05-24T00:01:49.416Z,22.6
2017-05-24T00:02:59.370Z,22.62
2017-05-24T00:04:09.322Z,22.57
2017-05-24T00:05:19.594Z,22.6
2017-05-24T00:06:29.544Z,22.6
2017-05-24T00:07:39.190Z,22.47
2017-05-24T00:08:49.145Z,22.49
2017-05-24T00:09:58.794Z,22.52
2017-05-24T00:11:08.749Z,22.51
2017-05-24T00:12:18.391Z,22.52
2017-05-24T00:13:28.346Z,22.51
2017-05-24T00:14:37.668Z,22.49
2017-05-24T00:15:47.623Z,22.52
2017-05-24T00:16:57.886Z,22.47
2017-05-24T00:18:08.146Z,22.51
2017-05-24T00:19:18.420Z,22.49
2017-05-24T00:20:28.056Z,22.55
2017-05-24T00:21:37.696Z,22.52
2017-05-24T00:22:47.339Z,22.47
2017-05-24T00:23:57.613Z,22.47
2017-05-24T00:25:07.880Z,22.54
2017-05-24T00:26:17.841Z,22.57
2017-05-24T00:27:26.848Z,22.52
2017-05-24T00:28:36.503Z,22.55
2017-05-24T00:29:46.461Z,22.52
2017-05-24T00:30:56.411Z,22.55
2017-05-24T00:32:06.044Z,22.4
2017-05-24T00:33:16.307Z,22.51
2017-05-24T00:34:26.270Z,22.46
2017-05-24T00:35:36.224Z,22.47
2017-05-24T00:36:46.493Z,22.46
2017-05-24T00:37:56.448Z,22.55
2017-05-24T00:39:06.088Z,22.55
2017-05-24T00:40:16.068Z,22.46
2017-05-24T00:41:26.018Z,22.51
2017-05-24T00:42:35.963Z,22.47
2017-05-24T00:43:45.635Z,22.49
2017-05-24T00:44:55.914Z,22.54
2017-05-24T00:46:05.557Z,22.47
2017-05-24T00:47:15.505Z,22.49
2017-05-24T00:48:25.452Z,22.51
2017-05-24T00:49:35.419Z,22.46
2017-05-24T00:50:45.057Z,22.54
2017-05-24T00:51:55.323Z,22.52
2017-05-24T00:53:05.274Z,22.47
2017-05-24T00:54:15.541Z,22.47
2017-05-24T00:55:25.177Z,22.39
2017-05-24T00:56:35.139Z,22.43
2017-05-24T00:57:44.773Z,22.47
2017-05-24T00:58:54.729Z,22.45
2017-05-24T01:00:04.682Z,22.39
2017-05-24T01:01:14.629Z,22.36
2017-05-24T01:02:24.265Z,22.37
2017-05-24T01:03:34.216Z,22.46
2017-05-24T01:04:44.184Z,22.39
2017-05-24T01:05:53.826Z,22.37
2017-05-24T01:07:03.462Z,22.36
2017-05-24T01:08:13.168Z,22.43
2017-05-24T01:09:22.808Z,22.37
2017-05-24T01:10:32.158Z,22.39
2017-05-24T01:11:42.423Z,22.36
2017-05-24T01:12:52.372Z,22.33
2017-05-24T01:14:02.640Z,22.39
2017-05-24T01:15:12.910Z,22.37
2017-05-24T01:16:22.863Z,22.45
2017-05-24T01:17:32.810Z,22.43
2017-05-24T01:18:42.458Z,22.49
2017-05-24T01:19:51.790Z,22.39
2017-05-24T01:21:02.062Z,22.36
2017-05-24T01:22:12.012Z,22.35
2017-05-24T01:23:22.282Z,22.31
2017-05-24T01:24:31.934Z,22.37
2017-05-24T01:25:41.888Z,22.37
2017-05-24T01:26:51.842Z,22.39
2017-05-24T01:28:01.799Z,22.4
2017-05-24T01:29:11.753Z,22.39
2017-05-24T01:30:21.706Z,22.33
2017-05-24T01:31:32.052Z,22.35
2017-05-24T01:32:41.698Z,22.39
2017-05-24T01:33:51.965Z,22.33
2017-05-24T01:35:01.925Z,22.33
2017-05-24T01:36:11.883Z,22.36
2017-05-24T01:37:22.157Z,22.33
2017-05-24T01:38:32.424Z,22.42
2017-05-24T01:39:42.061Z,22.4
2017-05-24T01:40:51.707Z,22.42
2017-05-24T01:42:01.660Z,22.37
2017-05-24T01:43:11.930Z,22.39
2017-05-24T01:44:22.208Z,22.37
2017-05-24T01:45:32.159Z,22.39
2017-05-24T01:46:42.109Z,22.39
2017-05-24T01:47:51.772Z,22.42
2017-05-24T01:49:02.042Z,22.36
2017-05-24T01:50:12.312Z,22.4
2017-05-24T01:51:21.954Z,22.35
2017-05-24T01:52:31.587Z,22.43
2017-05-24T01:53:41.226Z,22.37
2017-05-24T01:54:51.489Z,22.4
2017-05-24T01:56:01.446Z,22.39
2017-05-24T01:57:11.399Z,22.33
2017-05-24T01:58:21.351Z,22.39
2017-05-24T01:59:31.302Z,22.37
2017-05-24T02:00:41.260Z,22.4
2017-05-24T02:01:51.243Z,22.35
2017-05-24T02:03:01.509Z,22.4
2017-05-24T02:04:11.776Z,22.37
2017-05-24T02:05:21.421Z,22.35
2017-05-24T02:06:31.074Z,22.35
2017-05-24T02:07:41.340Z,22.39
2017-05-24T02:08:51.305Z,22.37
2017-05-24T02:10:01.573Z,22.4
2017-05-24T02:11:11.208Z,22.39
2017-05-24T02:12:21.477Z,22.4
2017-05-24T02:13:30.485Z,22.36
2017-05-24T02:14:39.809Z,22.4
2017-05-24T02:15:50.077Z,22.37
2017-05-24T02:17:00.340Z,22.35
2017-05-24T02:18:09.989Z,22.39
2017-05-24T02:19:19.635Z,22.4
2017-05-24T02:20:29.904Z,22.36
2017-05-24T02:21:39.856Z,22.31
2017-05-24T02:22:49.495Z,22.33
2017-05-24T02:23:59.131Z,22.3
2017-05-24T02:25:08.766Z,22.31
2017-05-24T02:26:18.721Z,22.39
2017-05-24T02:27:28.673Z,22.31
2017-05-24T02:28:38.630Z,22.46
2017-05-24T02:29:48.895Z,22.45
2017-05-24T02:30:58.224Z,22.45
2017-05-24T02:32:08.501Z,22.3
2017-05-24T02:33:18.148Z,22.33
2017-05-24T02:34:28.100Z,22.4
2017-05-24T02:35:38.365Z,22.39
2017-05-24T02:36:48.006Z,22.33
2017-05-24T02:37:57.964Z,22.33
2017-05-24T02:39:08.233Z,22.31
2017-05-24T02:40:18.191Z,22.37
2017-05-24T02:41:28.141Z,22.33
2017-05-24T02:42:38.406Z,22.3
2017-05-24T02:43:48.043Z,22.35
2017-05-24T02:44:57.369Z,22.28
2017-05-24T02:46:07.327Z,22.35
2017-05-24T02:47:17.285Z,22.4
2017-05-24T02:48:27.550Z,22.45
2017-05-24T02:49:37.209Z,22.36
2017-05-24T02:50:47.474Z,22.37
2017-05-24T02:51:57.107Z,22.3
2017-05-24T02:53:07.063Z,22.37
2017-05-24T02:54:17.027Z,22.33
2017-05-24T02:55:26.355Z,22.42
2017-05-24T02:56:36.313Z,22.35
2017-05-24T02:57:45.961Z,22.4
2017-05-24T02:58:55.919Z,22.36
2017-05-24T03:00:05.566Z,22.31
2017-05-24T03:01:15.202Z,22.36
2017-05-24T03:02:25.160Z,22.36
2017-05-24T03:03:35.118Z,22.43
2017-05-24T03:04:44.761Z,22.31
2017-05-24T03:05:54.725Z,22.35
2017-05-24T03:07:04.989Z,22.36
2017-05-24T03:08:15.261Z,22.33
2017-05-24T03:09:25.216Z,22.43
2017-05-24T03:10:34.856Z,22.43
2017-05-24T03:11:45.123Z,22.27
2017-05-24T03:12:55.391Z,22.33
2017-05-24T03:14:05.347Z,22.45
2017-05-24T03:15:14.992Z,22.33
2017-05-24T03:16:24.636Z,22.39
2017-05-24T03:17:34.284Z,22.4
2017-05-24T03:18:44.238Z,22.42
2017-05-24T03:19:54.522Z,22.27
2017-05-24T03:21:04.802Z,21.8
2017-05-24T03:22:14.759Z,21.56
2017-05-24T03:23:25.034Z,21.17
2017-05-24T03:24:35.299Z,20.92
2017-05-24T03:25:45.571Z,20.79
2017-05-24T03:26:55.840Z,20.7
2017-05-24T03:28:05.790Z,20.58
2017-05-24T03:29:15.429Z,20.54
2017-05-24T03:30:25.386Z,20.5
2017-05-24T03:31:35.338Z,20.51
2017-05-24T03:32:45.289Z,20.42
2017-05-24T03:33:55.242Z,20.33
2017-05-24T03:35:05.195Z,20.47
2017-05-24T03:36:15.463Z,20.41
2017-05-24T03:37:25.727Z,20.31
2017-05-24T03:38:35.663Z,20.32
2017-05-24T03:39:45.782Z,20.33
2017-05-24T03:40:55.870Z,20.43
2017-05-24T03:42:05.628Z,20.39
2017-05-24T03:43:15.897Z,20.36
2017-05-24T03:44:25.863Z,20.28
2017-05-24T03:45:35.184Z,20.16
2017-05-24T03:46:45.453Z,20.18
2017-05-24T03:47:55.088Z,19.98
2017-05-24T03:49:05.046Z,19.94
2017-05-24T03:50:15.012Z,19.91
2017-05-24T03:51:24.961Z,19.98
2017-05-24T03:52:34.907Z,19.96
2017-05-24T03:53:45.185Z,19.95
2017-05-24T03:54:54.830Z,20.06
2017-05-24T03:56:04.786Z,19.98
2017-05-24T03:57:15.051Z,19.91
2017-05-24T03:58:25.004Z,19.96
2017-05-24T03:59:35.332Z,19.99
2017-05-24T04:00:45.297Z,19.94
2017-05-24T04:01:55.288Z,19.94
2017-05-24T04:03:05.252Z,19.94
2017-05-24T04:04:15.215Z,19.94
2017-05-24T04:05:24.855Z,19.8
2017-05-24T04:06:34.806Z,19.95
2017-05-24T04:07:44.447Z,20.24
2017-05-24T04:08:54.399Z,20.51
2017-05-24T04:10:04.047Z,20.76
2017-05-24T04:11:14.312Z,20.88
2017-05-24T04:12:23.960Z,20.95
2017-05-24T04:13:33.923Z,21.06
2017-05-24T04:14:43.879Z,21.12
2017-05-24T04:15:54.138Z,21.21
2017-05-24T04:17:04.088Z,21.14
2017-05-24T04:18:14.036Z,21.31
2017-05-24T04:19:23.994Z,21.25
2017-05-24T04:20:33.628Z,21.32
2017-05-24T04:21:43.897Z,21.4
2017-05-24T04:22:53.847Z,21.4
2017-05-24T04:24:03.801Z,21.37
2017-05-24T04:25:13.436Z,21.54
2017-05-24T04:26:23.693Z,21.52
2017-05-24T04:27:33.640Z,21.49
2017-05-24T04:28:43.595Z,21.52
2017-05-24T04:29:53.549Z,21.59
2017-05-24T04:31:03.814Z,21.56
2017-05-24T04:32:13.765Z,21.53
2017-05-24T04:33:23.092Z,21.59
2017-05-24T04:34:32.412Z,21.58
2017-05-24T04:35:42.053Z,21.64
2017-05-24T04:36:52.001Z,21.56
2017-05-24T04:38:02.292Z,21.61
2017-05-24T04:39:12.246Z,21.64
2017-05-24T04:40:21.880Z,21.68
2017-05-24T04:41:31.210Z,21.65
2017-05-24T04:42:41.542Z,21.64
2017-05-24T04:43:51.490Z,21.72
2017-05-24T04:45:01.762Z,21.69
2017-05-24T04:46:11.087Z,21.74
2017-05-24T04:47:21.346Z,21.75
2017-05-24T04:48:30.980Z,21.71
2017-05-24T04:49:40.622Z,21.75
2017-05-24T04:50:50.899Z,21.77
2017-05-24T04:52:00.849Z,21.74
2017-05-24T04:53:11.116Z,21.84
2017-05-24T04:54:20.747Z,21.84
2017-05-24T04:55:31.013Z,21.82
2017-05-24T04:56:41.283Z,21.82
2017-05-24T04:57:51.233Z,21.8
2017-05-24T04:59:01.182Z,21.8
2017-05-24T05:00:11.130Z,21.72
2017-05-24T05:01:21.402Z,21.86
2017-05-24T05:02:31.665Z,21.9
2017-05-24T05:03:41.928Z,21.88
2017-05-24T05:04:52.217Z,21.9
2017-05-24T05:06:02.479Z,21.84
2017-05-24T05:07:12.117Z,21.83
2017-05-24T05:08:22.379Z,21.91
2017-05-24T05:09:32.332Z,21.98
2017-05-24T05:10:42.657Z,21.98
2017-05-24T05:11:52.623Z,21.91
2017-05-24T05:13:02.888Z,21.91
2017-05-24T05:14:12.843Z,21.92
2017-05-24T05:15:23.168Z,21.96
2017-05-24T05:16:33.132Z,21.96
2017-05-24T05:17:43.087Z,21.98
2017-05-24T05:18:53.041Z,21.94
2017-05-24T05:20:03.330Z,21.91
2017-05-24T05:21:12.965Z,21.91
2017-05-24T05:22:22.608Z,21.88
2017-05-24T05:23:32.245Z,21.98
2017-05-24T05:24:42.517Z,21.96
2017-05-24T05:25:52.797Z,21.96
2017-05-24T05:27:03.072Z,21.94
2017-05-24T05:28:13.034Z,21.94
2017-05-24T05:29:23.304Z,21.91
2017-05-24T05:30:32.936Z,21.94
2017-05-24T05:31:43.202Z,21.88
2017-05-24T05:32:53.473Z,21.9
2017-05-24T05:34:03.429Z,21.92
2017-05-24T05:35:12.753Z,21.96
2017-05-24T05:36:23.026Z,21.92
2017-05-24T05:37:33.292Z,21.96
2017-05-24T05:38:43.251Z,21.9
2017-05-24T05:39:53.206Z,22.02
2017-05-24T05:41:03.477Z,21.9
2017-05-24T05:42:13.482Z,21.92
2017-05-24T05:43:23.126Z,22.07
2017-05-24T05:44:33.082Z,22.07
2017-05-24T05:45:43.033Z,22.05
2017-05-24T05:46:53.311Z,22.03
2017-05-24T05:48:03.577Z,22.02
2017-05-24T05:49:12.898Z,22.03
2017-05-24T05:50:22.854Z,22
2017-05-24T05:51:32.811Z,21.98
2017-05-24T05:52:43.077Z,22.02
2017-05-24T05:53:53.030Z,22
2017-05-24T05:55:03.297Z,22.07
2017-05-24T05:56:13.250Z,22.02
2017-05-24T05:57:23.204Z,22.05
2017-05-24T05:58:33.154Z,21.99
2017-05-24T05:59:42.791Z,22
2017-05-24T06:00:52.433Z,22.05
2017-05-24T06:02:02.395Z,22.07
2017-05-24T06:03:12.667Z,22.07
2017-05-24T06:04:22.303Z,22.03
2017-05-24T06:05:32.569Z,22.07
2017-05-24T06:06:42.522Z,22.03
2017-05-24T06:07:52.472Z,22.02
2017-05-24T06:09:02.799Z,22.06
2017-05-24T06:10:12.450Z,22.09
2017-05-24T06:11:22.404Z,22.06
2017-05-24T06:12:32.363Z,22.07
2017-05-24T06:13:42.324Z,22
2017-05-24T06:14:52.284Z,22.09
2017-05-24T06:16:01.920Z,22.06
2017-05-24T06:17:11.870Z,22.03
2017-05-24T06:18:22.142Z,22.03
2017-05-24T06:19:32.401Z,22.12
2017-05-24T06:20:42.361Z,22.09
2017-05-24T06:21:52.630Z,22.1
2017-05-24T06:23:02.585Z,22.03
2017-05-24T06:24:12.538Z,22.02
2017-05-24T06:25:22.807Z,22.05
2017-05-24T06:26:33.070Z,22.03
2017-05-24T06:27:43.339Z,22.03
2017-05-24T06:28:52.672Z,22.09
2017-05-24T06:30:02.623Z,22.07
2017-05-24T06:31:12.261Z,22.06
2017-05-24T06:32:22.222Z,22.09
2017-05-24T06:33:32.177Z,22.09
2017-05-24T06:34:41.497Z,22.05
2017-05-24T06:35:51.130Z,22.15
2017-05-24T06:37:01.080Z,22.06
2017-05-24T06:38:10.711Z,22.07
2017-05-24T06:39:20.981Z,22.07
2017-05-24T06:40:30.934Z,22.07
2017-05-24T06:41:40.878Z,22.12
2017-05-24T06:42:50.518Z,22.07
2017-05-24T06:44:00.192Z,22.12
2017-05-24T06:45:10.461Z,22.12
2017-05-24T06:46:20.411Z,22.09
2017-05-24T06:47:29.734Z,22.1
2017-05-24T06:48:39.690Z,22.14
2017-05-24T06:49:49.653Z,22.09
2017-05-24T06:50:59.604Z,22.09
2017-05-24T06:52:09.567Z,22.06
2017-05-24T06:53:19.832Z,22.03
2017-05-24T06:54:29.789Z,22.07
2017-05-24T06:55:39.745Z,22.03
2017-05-24T06:56:49.695Z,22.1
2017-05-24T06:57:59.969Z,22.12
2017-05-24T06:59:10.243Z,22.12
2017-05-24T07:00:20.202Z,22.06
2017-05-24T07:01:30.465Z,22.07
2017-05-24T07:02:40.742Z,22.09
2017-05-24T07:03:51.013Z,22.12
2017-05-24T07:05:01.283Z,22.03
2017-05-24T07:06:11.254Z,22.07
2017-05-24T07:07:21.200Z,22.09
2017-05-24T07:08:31.468Z,22.09
2017-05-24T07:09:41.420Z,22.15
2017-05-24T07:10:51.368Z,22.1
2017-05-24T07:12:01.313Z,22.14
2017-05-24T07:13:10.632Z,22.14
2017-05-24T07:14:20.900Z,22.15
2017-05-24T07:15:31.178Z,22.14
2017-05-24T07:16:41.136Z,22.14
2017-05-24T07:17:51.405Z,22.18
2017-05-24T07:19:01.366Z,22.09
2017-05-24T07:20:11.317Z,22.14
2017-05-24T07:21:21.266Z,22.14
2017-05-24T07:22:31.528Z,22.06
2017-05-24T07:23:41.785Z,22.1
2017-05-24T07:24:51.742Z,22.05
2017-05-24T07:26:01.699Z,22.09
2017-05-24T07:27:11.964Z,22.03
2017-05-24T07:28:22.240Z,22.12
2017-05-24T07:29:32.516Z,22.03
2017-05-24T07:30:42.793Z,22.07
2017-05-24T07:31:53.060Z,22.17
2017-05-24T07:33:03.008Z,22.15
2017-05-24T07:34:13.286Z,22.14
2017-05-24T07:35:23.557Z,22.06
2017-05-24T07:36:33.517Z,22.09
2017-05-24T07:37:43.469Z,22.14
2017-05-24T07:38:53.744Z,22.1
2017-05-24T07:40:03.388Z,22.12
2017-05-24T07:41:13.344Z,22.14
2017-05-24T07:42:23.308Z,22.17
2017-05-24T07:43:32.952Z,22.14
2017-05-24T07:44:42.905Z,22.14
2017-05-24T07:45:52.546Z,22.14
2017-05-24T07:47:02.201Z,22.15
2017-05-24T07:48:11.842Z,22.14
2017-05-24T07:49:21.791Z,22.12
2017-05-24T07:50:32.078Z,22.15
2017-05-24T07:51:42.389Z,22.18
2017-05-24T07:52:52.648Z,22.14
2017-05-24T07:54:02.916Z,22.17
2017-05-24T07:55:12.870Z,22.14
2017-05-24T07:56:22.820Z,22.18
2017-05-24T07:57:33.085Z,22.15
2017-05-24T07:58:43.364Z,22.14
2017-05-24T07:59:53.008Z,22.17
2017-05-24T08:01:03.283Z,22.2
2017-05-24T08:02:13.244Z,22.17
2017-05-24T08:03:23.506Z,22.17
2017-05-24T08:04:33.766Z,22.09
2017-05-24T08:05:43.408Z,22.1
2017-05-24T08:06:53.677Z,22.18
2017-05-24T08:08:03.632Z,22.06
2017-05-24T08:09:13.917Z,22.14
2017-05-24T08:10:23.575Z,22.17
2017-05-24T08:11:33.525Z,22.14
2017-05-24T08:12:43.477Z,22.17
2017-05-24T08:13:53.429Z,22.15
2017-05-24T08:15:03.381Z,22.18
2017-05-24T08:16:13.018Z,22.14
2017-05-24T08:17:22.974Z,22.17
2017-05-24T08:18:32.935Z,22.14
2017-05-24T08:19:42.258Z,22.15
2017-05-24T08:20:51.901Z,22.1
2017-05-24T08:22:01.848Z,22.15
2017-05-24T08:23:11.806Z,22.14
2017-05-24T08:24:21.763Z,22.1
2017-05-24T08:25:31.100Z,22.18
2017-05-24T08:26:41.365Z,22.15
2017-05-24T08:27:51.638Z,22.1
2017-05-24T08:29:01.916Z,22.07
2017-05-24T08:30:12.184Z,22.14
2017-05-24T08:31:22.141Z,22.14
2017-05-24T08:32:32.101Z,22.05
2017-05-24T08:33:42.374Z,22.1
2017-05-24T08:34:52.351Z,22.09
2017-05-24T08:36:02.628Z,22.09
2017-05-24T08:37:12.901Z,22.09
2017-05-24T08:38:22.861Z,22.15
2017-05-24T08:39:33.133Z,22.14
2017-05-24T08:40:43.394Z,22.15
2017-05-24T08:41:53.031Z,22.17
2017-05-24T08:43:02.661Z,22.12
2017-05-24T08:44:12.933Z,22.14
2017-05-24T08:45:22.895Z,22.07
2017-05-24T08:46:33.165Z,22.1
2017-05-24T08:47:43.434Z,22.17
2017-05-24T08:48:53.069Z,22.12
2017-05-24T08:50:02.707Z,22.03
2017-05-24T08:51:12.659Z,22.1
2017-05-24T08:52:22.928Z,22.1
2017-05-24T08:53:32.568Z,22.14
2017-05-24T08:54:42.833Z,22.03
2017-05-24T08:55:52.786Z,22.06
2017-05-24T08:57:02.749Z,22.07
2017-05-24T08:58:12.400Z,22.12
2017-05-24T08:59:22.682Z,22.1
2017-05-24T09:00:32.342Z,22.1
2017-05-24T09:01:42.613Z,22.07
2017-05-24T09:02:52.882Z,22.1
2017-05-24T09:04:02.842Z,22.1
2017-05-24T09:05:12.480Z,22.1
2017-05-24T09:06:22.442Z,22.14
2017-05-24T09:07:32.708Z,22.09
2017-05-24T09:08:42.971Z,22.15
2017-05-24T09:09:52.927Z,22.09
2017-05-24T09:11:02.881Z,22.09
2017-05-24T09:12:12.832Z,22.03
2017-05-24T09:13:23.106Z,22.14
2017-05-24T09:14:33.375Z,22.07
2017-05-24T09:15:43.642Z,22.03
2017-05-24T09:16:53.281Z,22.03
2017-05-24T09:18:03.241Z,22.1
2017-05-24T09:19:13.517Z,22.14
2017-05-24T09:20:23.159Z,22.1
2017-05-24T09:21:33.418Z,22.14
2017-05-24T09:22:43.684Z,22.14
2017-05-24T09:23:53.634Z,22.14
2017-05-24T09:25:03.607Z,22.14
2017-05-24T09:26:13.874Z,22.15
2017-05-24T09:27:23.834Z,22.18
2017-05-24T09:28:33.790Z,22.17
2017-05-24T09:29:43.432Z,22.2
2017-05-24T09:30:53.388Z,22.14
2017-05-24T09:32:03.345Z,22.1
2017-05-24T09:33:13.359Z,22.17
2017-05-24T09:34:23.631Z,22.18
2017-05-24T09:35:33.900Z,22.12
2017-05-24T09:36:43.856Z,22.15
2017-05-24T09:37:54.124Z,22.12
2017-05-24T09:39:04.081Z,22.14
2017-05-24T09:40:13.720Z,22.15
2017-05-24T09:41:23.670Z,22.15
2017-05-24T09:42:33.311Z,22.07
2017-05-24T09:43:42.954Z,22.14
2017-05-24T09:44:53.227Z,22.12
2017-05-24T09:46:02.863Z,22.14
2017-05-24T09:47:12.815Z,22.17
2017-05-24T09:48:22.770Z,22.1
2017-05-24T09:49:32.725Z,22.12
2017-05-24T09:50:42.988Z,22.09
2017-05-24T09:51:52.626Z,22.1
2017-05-24T09:53:02.589Z,22.15
2017-05-24T09:54:12.857Z,22.14
2017-05-24T09:55:23.130Z,22.15
2017-05-24T09:56:33.398Z,22.15
2017-05-24T09:57:43.676Z,22.06
2017-05-24T09:58:53.000Z,22.09
2017-05-24T10:00:02.327Z,22.07
2017-05-24T10:01:12.277Z,22.07
2017-05-24T10:02:22.542Z,22.05
2017-05-24T10:03:32.812Z,22.05
2017-05-24T10:04:43.085Z,22.1
2017-05-24T10:05:53.039Z,22.09
2017-05-24T10:07:02.356Z,22.05
2017-05-24T10:08:11.986Z,22.15
2017-05-24T10:09:21.938Z,22.07
2017-05-24T10:10:31.572Z,22.1
2017-05-24T10:11:41.837Z,22.09
2017-05-24T10:12:51.473Z,22.07
2017-05-24T10:14:01.758Z,22.07
2017-05-24T10:15:11.393Z,22.05
2017-05-24T10:16:21.361Z,22.09
2017-05-24T10:17:31.628Z,22.1
2017-05-24T10:18:41.581Z,22.14
2017-05-24T10:19:51.852Z,22.14
2017-05-24T10:21:02.118Z,22.17
2017-05-24T10:22:11.759Z,22.17
2017-05-24T10:23:21.138Z,22.17
2017-05-24T10:24:31.096Z,22.15
2017-05-24T10:25:41.357Z,22.12
2017-05-24T10:26:51.683Z,22.14
2017-05-24T10:28:01.640Z,22.17
2017-05-24T10:29:11.594Z,22.15
2017-05-24T10:30:21.545Z,22.22
2017-05-24T10:31:31.811Z,22.12
2017-05-24T10:32:41.772Z,22.12
2017-05-24T10:33:52.043Z,22.14
2017-05-24T10:35:01.436Z,22.12
2017-05-24T10:36:11.400Z,22.15
2017-05-24T10:37:21.358Z,22.18
2017-05-24T10:38:31.362Z,22.12
2017-05-24T10:39:41.324Z,22.17
2017-05-24T10:40:50.977Z,22.18
2017-05-24T10:42:00.930Z,22.1
2017-05-24T10:43:10.888Z,22.12
2017-05-24T10:44:20.542Z,22.12
2017-05-24T10:45:30.814Z,22.1
2017-05-24T10:46:40.766Z,22.1
2017-05-24T10:47:50.722Z,22.14
2017-05-24T10:49:00.043Z,22.09
2017-05-24T10:50:10.001Z,22.14
2017-05-24T10:51:19.952Z,22.15
2017-05-24T10:52:29.904Z,22.15
2017-05-24T10:53:40.170Z,22.09
2017-05-24T10:54:50.132Z,22.14
2017-05-24T10:56:00.408Z,22.21
2017-05-24T10:57:10.362Z,22.15
2017-05-24T10:58:20.325Z,22.18
2017-05-24T10:59:30.593Z,22.18
2017-05-24T11:00:39.913Z,22.2
2017-05-24T11:01:49.863Z,22.15
2017-05-24T11:02:59.496Z,22.17
2017-05-24T11:04:09.456Z,22.1
2017-05-24T11:05:19.726Z,22.12
2017-05-24T11:06:29.673Z,22.15
2017-05-24T11:07:39.948Z,22.14
2017-05-24T11:08:50.219Z,22.12
2017-05-24T11:10:00.180Z,22.14
2017-05-24T11:11:10.454Z,22.14
2017-05-24T11:12:20.800Z,22.15
2017-05-24T11:13:30.439Z,22.18
2017-05-24T11:14:40.700Z,22.14
2017-05-24T11:15:50.966Z,22.14
2017-05-24T11:17:00.916Z,22.15
2017-05-24T11:18:10.556Z,22.18
2017-05-24T11:19:20.509Z,22.15
2017-05-24T11:20:30.465Z,22.15
2017-05-24T11:21:40.417Z,22.15
2017-05-24T11:22:50.685Z,22.14
2017-05-24T11:24:00.654Z,22.17
2017-05-24T11:25:09.972Z,22.17
2017-05-24T11:26:20.241Z,22.18
2017-05-24T11:27:30.194Z,22.17
2017-05-24T11:28:40.465Z,22.21
2017-05-24T11:29:50.418Z,22.17
2017-05-24T11:31:00.691Z,22.17
2017-05-24T11:32:10.642Z,22.22
2017-05-24T11:33:20.593Z,22.18
2017-05-24T11:34:30.867Z,22.15
2017-05-24T11:35:40.825Z,22.2
2017-05-24T11:36:50.781Z,22.24
2017-05-24T11:38:00.740Z,22.24
2017-05-24T11:39:11.001Z,22.18
2017-05-24T11:40:20.637Z,22.22
2017-05-24T11:41:30.900Z,22.17
2017-05-24T11:42:41.173Z,22.2
2017-05-24T11:43:51.439Z,22.22
2017-05-24T11:45:01.395Z,22.2
2017-05-24T11:46:11.356Z,22.25
2017-05-24T11:47:21.303Z,22.2
2017-05-24T11:48:31.266Z,22.15
2017-05-24T11:49:40.902Z,22.2
2017-05-24T11:50:50.857Z,22.27
2017-05-24T11:52:00.806Z,22.25
2017-05-24T11:53:10.763Z,22.17
2017-05-24T11:54:20.710Z,22.24
2017-05-24T11:55:30.662Z,22.24
2017-05-24T11:56:40.631Z,22.2
2017-05-24T11:57:50.912Z,22.2
2017-05-24T11:59:00.869Z,22.27
2017-05-24T12:00:11.131Z,22.2
2017-05-24T12:01:21.084Z,22.15
2017-05-24T12:02:30.729Z,22.18
2017-05-24T12:03:39.738Z,22.22
2017-05-24T12:04:49.063Z,22.2
2017-05-24T12:05:59.013Z,22.22
2017-05-24T12:07:09.280Z,22.2
2017-05-24T12:08:19.247Z,22.2
2017-05-24T12:09:28.897Z,22.2
2017-05-24T12:10:38.857Z,22.18
2017-05-24T12:11:48.497Z,22.14
2017-05-24T12:12:58.768Z,22.2
2017-05-24T12:14:08.734Z,22.2
2017-05-24T12:15:18.996Z,22.22
2017-05-24T12:16:30.122Z,22.17
2017-05-24T12:17:40.389Z,22.15
2017-05-24T12:18:50.572Z,22.18
2017-05-24T12:20:00.577Z,22.2
2017-05-24T12:21:10.527Z,22.21
2017-05-24T12:22:20.161Z,22.24
2017-05-24T12:23:30.117Z,22.21
2017-05-24T12:24:40.391Z,22.21
2017-05-24T12:25:50.342Z,22.17
2017-05-24T12:27:00.607Z,22.17
2017-05-24T12:28:10.260Z,22.18
2017-05-24T12:29:20.215Z,22.21
2017-05-24T12:30:30.159Z,22.21
2017-05-24T12:31:40.115Z,22.2
2017-05-24T12:32:50.069Z,22.18
2017-05-24T12:34:00.020Z,22.2
2017-05-24T12:35:09.657Z,22.22
2017-05-24T12:36:19.925Z,22.18
2017-05-24T12:37:29.251Z,22.22
2017-05-24T12:38:39.521Z,22.14
2017-05-24T12:39:49.793Z,22.21
2017-05-24T12:41:00.059Z,22.2
2017-05-24T12:42:10.344Z,22.18
2017-05-24T12:43:19.986Z,22.21
2017-05-24T12:44:30.254Z,22.2
2017-05-24T12:45:40.527Z,22.25
2017-05-24T12:46:50.492Z,22.2
2017-05-24T12:48:00.138Z,22.24
2017-05-24T12:49:10.098Z,22.18
2017-05-24T12:50:19.733Z,22.21
2017-05-24T12:51:29.993Z,22.12
2017-05-24T12:52:39.951Z,22.25
2017-05-24T12:53:49.912Z,22.22
2017-05-24T12:54:59.553Z,22.17
2017-05-24T12:56:09.497Z,22.18
2017-05-24T12:57:19.451Z,22.27
2017-05-24T12:58:29.721Z,22.27
2017-05-24T12:59:39.986Z,22.21
2017-05-24T13:00:49.950Z,22.27
2017-05-24T13:02:00.224Z,22.2
2017-05-24T13:03:10.489Z,22.2
2017-05-24T13:04:20.761Z,22.14
2017-05-24T13:05:31.031Z,22.18
2017-05-24T13:06:40.987Z,22.22
2017-05-24T13:07:50.940Z,22.18
2017-05-24T13:09:01.217Z,22.18
2017-05-24T13:10:11.167Z,22.21
2017-05-24T13:11:20.489Z,22.15
2017-05-24T13:12:30.518Z,22.22
2017-05-24T13:13:39.530Z,22.25
2017-05-24T13:14:49.170Z,22.21
2017-05-24T13:15:59.121Z,22.22
2017-05-24T13:17:09.389Z,22.21
2017-05-24T13:18:19.724Z,22.22
2017-05-24T13:19:29.678Z,22.2
2017-05-24T13:20:39.946Z,22.21
2017-05-24T13:21:50.216Z,22.3
2017-05-24T13:22:59.867Z,22.15
2017-05-24T13:24:09.503Z,22.18
2017-05-24T13:25:19.765Z,22.24
2017-05-24T13:26:29.086Z,22.21
2017-05-24T13:27:39.038Z,22.17
2017-05-24T13:28:48.999Z,22.22
2017-05-24T13:29:58.951Z,22.24
2017-05-24T13:31:08.910Z,22.25
2017-05-24T13:32:18.550Z,22.2
2017-05-24T13:33:28.190Z,22.15
2017-05-24T13:34:38.144Z,22.2
2017-05-24T13:35:48.100Z,22.18
2017-05-24T13:36:58.053Z,22.22
2017-05-24T13:38:08.003Z,22.2
2017-05-24T13:39:17.713Z,22.25
2017-05-24T13:40:27.982Z,22.25
2017-05-24T13:41:37.943Z,22.18
2017-05-24T13:42:48.213Z,22.2
2017-05-24T13:43:58.490Z,22.18
2017-05-24T13:45:08.752Z,22.2
2017-05-24T13:46:19.016Z,22.22
2017-05-24T13:47:28.337Z,22.21
2017-05-24T13:48:38.290Z,22.21
2017-05-24T13:49:47.619Z,22.2
2017-05-24T13:50:57.891Z,22.22
2017-05-24T13:52:07.838Z,22.18
2017-05-24T13:53:17.794Z,22.22
2017-05-24T13:54:28.069Z,22.18
2017-05-24T13:55:37.406Z,22.21
2017-05-24T13:56:47.357Z,22.22
2017-05-24T13:57:57.625Z,22.18
2017-05-24T13:59:07.266Z,22.21
2017-05-24T14:00:16.913Z,22.18
2017-05-24T14:01:27.185Z,22.22
2017-05-24T14:02:37.460Z,22.21
2017-05-24T14:03:47.730Z,22.15
2017-05-24T14:04:57.384Z,22.2
2017-05-24T14:06:07.651Z,22.21
2017-05-24T14:07:17.606Z,22.2
2017-05-24T14:08:27.565Z,22.2
2017-05-24T14:09:37.205Z,22.21
2017-05-24T14:10:47.471Z,22.2
2017-05-24T14:11:57.106Z,22.24
2017-05-24T14:13:06.740Z,22.18
2017-05-24T14:14:16.699Z,22.17
2017-05-24T14:15:26.656Z,22.21
2017-05-24T14:16:36.293Z,22.24
2017-05-24T14:17:46.248Z,22.2
2017-05-24T14:18:56.205Z,22.2
2017-05-24T14:20:05.838Z,22.18
2017-05-24T14:21:15.485Z,22.22
2017-05-24T14:22:25.440Z,22.14
2017-05-24T14:23:35.711Z,22.15
2017-05-24T14:24:45.667Z,22.24
2017-05-24T14:25:55.617Z,22.15
2017-05-24T14:27:05.562Z,22.21
2017-05-24T14:28:15.204Z,22.2
2017-05-24T14:29:25.163Z,22.21
2017-05-24T14:30:34.484Z,22.24
2017-05-24T14:31:44.435Z,22.24
2017-05-24T14:32:54.075Z,22.27
2017-05-24T14:34:04.037Z,22.2
2017-05-24T14:35:13.048Z,22.2
2017-05-24T14:36:22.697Z,22.22
2017-05-24T14:37:32.650Z,22.24
2017-05-24T14:38:42.942Z,22.2
2017-05-24T14:39:52.894Z,22.25
2017-05-24T14:41:03.168Z,22.2
2017-05-24T14:42:13.437Z,22.21
2017-05-24T14:43:23.075Z,22.21
2017-05-24T14:44:33.344Z,22.17
2017-05-24T14:45:42.985Z,22.21
2017-05-24T14:46:52.941Z,22.21
2017-05-24T14:48:03.219Z,22.24
2017-05-24T14:49:13.178Z,22.22
2017-05-24T14:50:22.820Z,22.14
2017-05-24T14:51:32.459Z,22.18
2017-05-24T14:52:42.731Z,22.18
2017-05-24T14:53:52.370Z,22.25
2017-05-24T14:55:02.324Z,22.27
2017-05-24T14:56:12.280Z,22.3
2017-05-24T14:57:22.546Z,22.28
2017-05-24T14:58:32.814Z,22.24
2017-05-24T14:59:43.100Z,22.2
2017-05-24T15:00:52.750Z,22.28
2017-05-24T15:02:03.025Z,22.2
2017-05-24T15:03:12.663Z,22.2
2017-05-24T15:04:22.932Z,22.21
2017-05-24T15:05:32.891Z,22.17